»·PEaware :: AAL1242 KSFO-KPHX

AAL1242 :: KSFO-KPHX

FLIGHT INFORMATION

Flight Status: Arrived
Operator:
American Airlines
More flights by this operator :: More flights under this callsign
Pilot: John C. (18682)
Aircraft: AIRBUS A320
(A320)
More flights by this aircraft type
Origin: KSFO San Francisco Intl
United States
Destination: KPHX Phoenix Sky Harbor Intl
United States
More flights between these airports :: More routes between these airports
Route: SSTIK3 LOSHN BOILE BLH HYDRR1
File this flight plan on PilotEdge
Remarks:
Altitude:
(Current/Filed)
39,000ft
Speed:
(Current/Filed)
450kts
Departed: 20-Apr-18 02:11 PM
Arrived: 20-Apr-18 03:45 PM
Distance/Time
Traveled:
565nm/1:34
Distance/Time
To Go:
Arrived

Flight Plot

Page will automatically refresh every two minutes.


Map Options




Map Legend


Flown Route
Filed Route
Departure Airport
Arrival Airport
Navaid (VOR, NDB)
Fix

Horizontal Profiles

Position Reports

Time Latitude Longitude Heading Altitude Ground
Speed
20-Apr-18 13:40 37.618318 -122.381990 139 31ft 0kts
20-Apr-18 13:41 37.618318 -122.381990 139 31ft 0kts
20-Apr-18 13:42 37.618318 -122.381990 139 31ft 0kts
20-Apr-18 13:43 37.618318 -122.381990 139 31ft 0kts
20-Apr-18 13:44 37.618318 -122.381990 139 31ft 0kts
20-Apr-18 13:45 37.618318 -122.381990 139 31ft 0kts
20-Apr-18 13:46 37.618318 -122.381990 139 31ft 0kts
20-Apr-18 13:47 37.618318 -122.381990 139 31ft 0kts
20-Apr-18 13:48 37.618318 -122.381990 139 31ft 0kts
20-Apr-18 13:49 37.618318 -122.381990 139 31ft 0kts
20-Apr-18 13:50 37.618318 -122.381990 139 31ft 0kts
20-Apr-18 13:51 37.618318 -122.381990 139 31ft 0kts
20-Apr-18 13:52 37.618318 -122.381990 139 31ft 0kts
20-Apr-18 13:53 37.618318 -122.381990 139 31ft 0kts
20-Apr-18 13:54 37.618318 -122.381990 139 31ft 0kts
20-Apr-18 13:55 37.618317 -122.381990 139 31ft 0kts
20-Apr-18 13:56 37.618318 -122.381990 139 31ft 0kts
20-Apr-18 13:57 37.618318 -122.381990 139 31ft 0kts
20-Apr-18 13:58 37.618318 -122.381990 139 31ft 0kts
20-Apr-18 13:59 37.618318 -122.381990 139 31ft 0kts
20-Apr-18 14:00 37.618318 -122.381991 139 31ft 0kts
20-Apr-18 14:01 37.618619 -122.382480 77 31ft 2kts
20-Apr-18 14:02 37.618770 -122.382487 27 31ft 0kts
20-Apr-18 14:03 37.618770 -122.382486 27 31ft 0kts
20-Apr-18 14:04 37.618958 -122.382368 27 31ft 6kts
20-Apr-18 14:05 37.619029 -122.382322 27 31ft 3kts
20-Apr-18 14:06 37.616939 -122.379538 193 30ft 11kts
20-Apr-18 14:07 37.612547 -122.382336 208 31ft 21kts
20-Apr-18 14:08 37.609214 -122.383643 124 31ft 4kts
20-Apr-18 14:09 37.609103 -122.383446 124 31ft 2kts
20-Apr-18 14:10 37.618139 -122.376095 26 23ft 135kts
20-Apr-18 14:11 37.658374 -122.362519 359 2123ft 172kts
20-Apr-18 14:12 37.685020 -122.407845 241 3206ft 266kts
20-Apr-18 14:13 37.614341 -122.422731 182 6586ft 287kts
20-Apr-18 14:14 37.536930 -122.449191 204 9665ft 298kts
20-Apr-18 14:15 37.458122 -122.424279 126 10727ft 369kts
20-Apr-18 14:16 37.390965 -122.320685 127 13105ft 393kts
20-Apr-18 14:17 37.320494 -122.211635 127 15753ft 412kts
20-Apr-18 14:18 37.246874 -122.097993 127 18176ft 430kts
20-Apr-18 14:19 37.169992 -121.979713 127 20441ft 446kts
20-Apr-18 14:20 37.090659 -121.858109 127 22475ft 460kts
20-Apr-18 14:21 37.009218 -121.733733 127 24263ft 474kts
20-Apr-18 14:22 36.924405 -121.604700 128 25869ft 488kts
20-Apr-18 14:23 36.838542 -121.474778 128 27536ft 493kts
20-Apr-18 14:24 36.752488 -121.344888 129 29311ft 491kts
20-Apr-18 14:25 36.666178 -121.214965 129 30877ft 489kts
20-Apr-18 14:26 36.578929 -121.084281 129 32012ft 494kts
20-Apr-18 14:27 36.490895 -120.952929 129 32951ft 501kts
20-Apr-18 14:28 36.402097 -120.819872 129 34088ft 500kts
20-Apr-18 14:29 36.313716 -120.687947 129 35149ft 498kts
20-Apr-18 14:30 36.227250 -120.559358 129 36058ft 496kts
20-Apr-18 14:31 36.139241 -120.428973 129 36796ft 496kts
20-Apr-18 14:32 36.052692 -120.301145 129 37418ft 496kts
20-Apr-18 14:33 35.964257 -120.171092 129 37946ft 495kts
20-Apr-18 14:34 35.879007 -120.046292 130 38378ft 496kts
20-Apr-18 14:35 35.789950 -119.920636 131 38730ft 496kts
20-Apr-18 14:36 35.699418 -119.792732 130 39053ft 496kts
20-Apr-18 14:37 35.613107 -119.670410 130 39214ft 492kts
20-Apr-18 14:38 35.523936 -119.544485 131 39187ft 479kts
20-Apr-18 14:39 35.436105 -119.420906 131 39194ft 485kts
20-Apr-18 14:40 35.348938 -119.298594 131 39203ft 484kts
20-Apr-18 14:41 35.260467 -119.174978 131 39207ft 485kts
20-Apr-18 14:42 35.171486 -119.051119 131 39206ft 485kts
20-Apr-18 14:43 35.082286 -118.927417 131 39215ft 490kts
20-Apr-18 14:44 34.991591 -118.802062 131 39237ft 497kts
20-Apr-18 14:45 34.900906 -118.677182 133 39237ft 490kts
20-Apr-18 14:46 34.811323 -118.554495 133 39208ft 490kts
20-Apr-18 14:47 34.721013 -118.431038 133 39159ft 488kts
20-Apr-18 14:48 34.634631 -118.313279 133 39156ft 489kts
20-Apr-18 14:49 34.544234 -118.190496 133 39164ft 489kts
20-Apr-18 14:50 34.453631 -118.067928 133 39174ft 489kts
20-Apr-18 14:51 34.397606 -117.920726 106 39172ft 492kts
20-Apr-18 14:52 34.359099 -117.762613 105 39166ft 491kts
20-Apr-18 14:53 34.320718 -117.604517 105 39143ft 491kts
20-Apr-18 14:54 34.282026 -117.446103 105 39144ft 491kts
20-Apr-18 14:55 34.243589 -117.289593 106 39148ft 491kts
20-Apr-18 14:56 34.204492 -117.131453 106 39148ft 491kts
20-Apr-18 14:57 34.165014 -116.972763 105 39148ft 497kts
20-Apr-18 14:58 34.131609 -116.839228 105 39140ft 504kts
20-Apr-18 14:59 34.090680 -116.676540 105 39096ft 507kts
20-Apr-18 15:00 34.042922 -116.487950 105 39085ft 507kts
20-Apr-18 15:01 34.001888 -116.326978 106 39084ft 506kts
20-Apr-18 15:02 33.960827 -116.166811 106 39077ft 507kts
20-Apr-18 15:03 33.919066 -116.004976 106 39050ft 507kts
20-Apr-18 15:04 33.877438 -115.845073 106 39049ft 507kts
20-Apr-18 15:05 33.842368 -115.710794 106 38679ft 502kts
20-Apr-18 15:06 33.799836 -115.548731 106 36771ft 505kts
20-Apr-18 15:07 33.757418 -115.388039 106 35150ft 512kts
20-Apr-18 15:08 33.714720 -115.227175 106 33464ft 509kts
20-Apr-18 15:09 33.678093 -115.084753 105 32902ft 517kts
20-Apr-18 15:10 33.636158 -114.918983 105 32129ft 521kts
20-Apr-18 15:11 33.594359 -114.753730 102 30879ft 518kts
20-Apr-18 15:12 33.561756 -114.586192 100 29519ft 518kts
20-Apr-18 15:13 33.529325 -114.419718 99 28168ft 517kts
20-Apr-18 15:14 33.497886 -114.259494 100 26716ft 517kts
20-Apr-18 15:15 33.465093 -114.093742 100 24816ft 505kts
20-Apr-18 15:16 33.433139 -113.934360 99 23033ft 482kts
20-Apr-18 15:17 33.401477 -113.776844 99 23071ft 487kts
20-Apr-18 15:18 33.370593 -113.624405 99 22749ft 448kts
20-Apr-18 15:19 33.342185 -113.484860 99 22177ft 430kts
20-Apr-18 15:20 33.317959 -113.348927 97 21210ft 407kts
20-Apr-18 15:21 33.295965 -113.220443 95 20215ft 393kts
20-Apr-18 15:22 33.277833 -113.093841 94 19248ft 385kts
20-Apr-18 15:23 33.276912 -112.971768 83 18255ft 358kts
20-Apr-18 15:24 33.279792 -112.853866 85 17282ft 355kts
20-Apr-18 15:25 33.288421 -112.738185 81 16185ft 346kts
20-Apr-18 15:26 33.298983 -112.625622 81 15068ft 338kts
20-Apr-18 15:27 33.309208 -112.515464 81 13969ft 329kts
20-Apr-18 15:28 33.319091 -112.407963 81 12892ft 321kts
20-Apr-18 15:29 33.328583 -112.303677 82 11516ft 320kts
20-Apr-18 15:30 33.338006 -112.199273 83 9905ft 308kts
20-Apr-18 15:31 33.346575 -112.104702 82 9083ft 270kts
20-Apr-18 15:32 33.346695 -112.018067 90 8034ft 254kts
20-Apr-18 15:33 33.346298 -111.937336 89 7042ft 235kts
20-Apr-18 15:34 33.347061 -111.860173 89 6050ft 230kts
20-Apr-18 15:35 33.348123 -111.784859 88 5023ft 209kts
20-Apr-18 15:36 33.362509 -111.723285 13 5043ft 200kts
20-Apr-18 15:37 33.416045 -111.719908 345 5033ft 189kts
20-Apr-18 15:38 33.437673 -111.770684 275 4790ft 180kts
20-Apr-18 15:39 33.440375 -111.828058 268 3862ft 170kts
20-Apr-18 15:40 33.440635 -111.881458 268 2967ft 146kts
20-Apr-18 15:41 33.440744 -111.928357 267 2211ft 137kts
20-Apr-18 15:42 33.440792 -111.973226 265 1486ft 135kts
20-Apr-18 15:43 33.440862 -112.010315 268 1127ft 47kts
20-Apr-18 15:44 33.439644 -112.014277 199 1125ft 13kts
20-Apr-18 15:45 33.439015 -112.010729 90 1127ft 11kts
20-Apr-18 15:46 33.439047 -112.004508 89 1130ft 24kts
20-Apr-18 15:47 33.438999 -111.998585 111 1134ft 12kts
20-Apr-18 15:48 33.437850 -111.998130 96 1133ft 1kts
20-Apr-18 15:49 33.437858 -111.997362 90 1133ft 0kts
20-Apr-18 15:50 33.437858 -111.997362 90 1133ft 0kts

Navigation Log

Ident Type
1. KSFO Airport
2. BOILE Fix
3. BLH Navaid
4. KPHX Airport